Flight Track Log - Related Links

Times and Time Zones

All times are in EDT time to prevent confusion due to time zone crossing. See the EJA929 flight status page for this flight to view local times or setup timezone preferences in your user account.

Time Position Orientation Groundspeed Altitude Reporting Facility
EDT Latitude Longitude Course Direction KTS MPH feet Rate Location/Type
Wed 07:58:00 AM 26.7033 -80.2400 326° Northwest 255 293 6,100  Level Miami Center
Wed 07:59:00 AM 26.7753 -80.2911 328° Northwest 264 304 8,700 2,400 Climbing Miami Center
Wed 08:00:00 AM 26.8558 -80.3306 336° Northwest 293 337 10,900 1,700 Climbing Miami Center
Wed 08:01:00 AM 26.9058 -80.4231 301° West 321 369 12,100 1,450 Climbing Miami Center
Wed 08:02:00 AM 27.0887 -80.4360 336° Northwest  Level FlightAware
Wed 08:02:00 AM 26.9303 -80.5261 285° West 336 387 13,800  Level Miami Center
Wed 08:03:00 AM 27.2001 -80.5042 326° Northwest  Level FlightAware
Wed 08:03:00 AM 26.9567 -80.6389 285° West 370 426 15,300  Level Miami Center
Wed 08:04:00 AM 26.9906 -80.7728 286° West 393 452 16,600 1,250 Climbing Miami Center
Wed 08:05:00 AM 27.0186 -80.8950 284° West 406 467 17,800 1,200 Climbing Miami Center
Wed 08:06:00 AM 27.0467 -81.0078 286° West 414 476 19,000 1,250 Climbing Miami Center
Wed 08:07:00 AM 27.0744 -81.1347 284° West 414 476 20,300 1,300 Climbing Miami Center
Wed 08:08:00 AM 27.1039 -81.2619 285° West 420 483 21,600 1,350 Climbing Miami Center
Wed 08:09:00 AM 27.1372 -81.4008 285° West 420 483 23,000 1,200 Climbing Miami Center
Wed 08:10:00 AM 27.1686 -81.5328 285° West 425 489 24,000 1,150 Climbing Miami Center
Wed 08:11:00 AM 27.1997 -81.6694 284° West 441 507 25,300 1,250 Climbing Miami Center
Wed 08:12:00 AM 27.2225 -81.7942 282° West 451 519 26,500 1,050 Climbing Miami Center
Wed 08:13:00 AM 27.2533 -81.9331 284° West 460 529 27,400 1,000 Climbing Miami Center
Wed 08:14:12 AM 27.2831 -82.0886 282° West 460 529 28,700 1,091 Climbing Miami Center
Wed 08:15:12 AM 27.3133 -82.2347 283° West 470 541 29,800 1,200 Climbing Miami Center
Wed 08:16:12 AM 27.3411 -82.3833 282° West 480 552 31,100 1,550 Climbing Miami Center
Wed 08:17:12 AM 27.3725 -82.5389 283° West 473 544 32,900 1,950 Climbing Miami Center
Wed 08:18:12 AM 27.4039 -82.6972 283° West 472 543 35,000 2,100 Climbing Miami Center
Wed 08:19:12 AM 27.4336 -82.8389 283° West 472 543 37,100 1,500 Climbing Miami Center
Wed 08:20:12 AM 27.4631 -82.9808 283° West 472 543 38,000 450 Climbing Miami Center
Wed 08:21:12 AM 27.4919 -83.1297 282° West 478 550 38,000  Level Miami Center
Wed 08:22:12 AM 27.5189 -83.2786 282° West 478 550 38,000  Level Miami Center
Wed 08:23:12 AM 27.5458 -83.4228 282° West 484 557 38,000  Level Miami Center
Wed 08:24:12 AM 27.5742 -83.5742 282° West 484 557 38,000  Level Miami Center
Wed 08:26:42 AM 27.6469 -83.9489 282° West 508 585 38,000  Level Jacksonville Center
Wed 08:27:42 AM 27.6769 -84.1017 283° West 508 585 38,000  Level Jacksonville Center
Wed 08:28:42 AM 27.7025 -84.2589 280° West 508 585 38,000  Level Jacksonville Center
Wed 08:29:42 AM 27.7319 -84.4094 282° West 502 578 38,000  Level Jacksonville Center
Wed 08:30:42 AM 27.7594 -84.5644 281° West 502 578 38,000  Level Jacksonville Center
Wed 08:31:42 AM 27.7886 -84.7197 282° West 507 583 38,000  Level Jacksonville Center
Wed 08:32:42 AM 27.8322 -84.8661 289° West 499 574 38,000  Level Jacksonville Center
Wed 08:33:42 AM 27.8736 -85.0194 287° West 499 574 38,000  Level Jacksonville Center
Wed 08:34:42 AM 27.9192 -85.1636 290° West 499 574 38,000  Level Jacksonville Center
Wed 08:35:42 AM 27.9603 -85.3172 287° West 504 580 38,000  Level Jacksonville Center
Wed 08:36:42 AM 28.0031 -85.4711 288° West 504 580 38,000  Level Jacksonville Center
Wed 08:37:42 AM 28.0481 -85.6228 289° West 509 586 38,000  Level Jacksonville Center
Wed 08:38:42 AM 28.0906 -85.7744 288° West 503 579 38,000  Level Jacksonville Center
Wed 08:39:42 AM 28.1331 -85.9239 288° West 503 579 38,000  Level Jacksonville Center
Wed 08:40:42 AM 28.1792 -86.0853 288° West 503 579 38,000  Level Jacksonville Center
Wed 08:41:42 AM 28.2214 -86.2350 288° West 503 579 38,000  Level Jacksonville Center
Wed 08:42:42 AM 28.2653 -86.3897 288° West 503 579 38,000  Level Jacksonville Center
Wed 08:43:42 AM 28.3069 -86.5397 288° West 503 579 38,000  Level Jacksonville Center
Wed 08:44:42 AM 28.3483 -86.6919 287° West 510 587 38,000  Level Jacksonville Center
Wed 08:45:42 AM 28.3897 -86.8422 287° West 500 575 38,000  Level Jacksonville Center
Wed 08:46:42 AM 28.4328 -86.9972 288° West 505 581 38,000  Level Jacksonville Center
Wed 08:47:42 AM 28.4719 -87.1428 287° West 500 575 38,000  Level Jacksonville Center
Wed 08:48:48 AM 28.5106 -87.2850 287° West 503 579 38,000  Level Houston Center
Wed 08:49:49 AM 28.5497 -87.4344 287° West 498 573 38,000  Level Houston Center
Wed 08:50:51 AM 28.5997 -87.6172 287° West 502 578 38,000  Level Houston Center
Wed 08:51:53 AM 28.6392 -87.7672 287° West 498 573 38,000  Level Houston Center
Wed 08:52:54 AM 28.6789 -87.9175 287° West 498 573 38,000  Level Houston Center
Wed 08:53:56 AM 28.7186 -88.0678 287° West 497 572 38,000  Level Houston Center
Wed 08:54:57 AM 28.7606 -88.2078 289° West 498 573 38,000  Level Houston Center
Wed 08:55:59 AM 28.8539 -88.3561 306° West 483 556 38,000 -339 Level Houston Center
Wed 08:57:01 AM 28.9319 -88.4822 305° West 486 559 37,300 -1,366 Descending Houston Center
Wed 08:58:02 AM 29.0139 -88.6128 306° West 502 578 35,200 -2,000 Descending Houston Center
Wed 08:59:04 AM 29.0953 -88.7492 304° West 517 595 33,200 -2,195 Descending Houston Center
Wed 09:00:05 AM 29.1767 -88.8811 305° West 511 588 30,700 -2,829 Descending Houston Center
Wed 09:01:07 AM 29.2567 -89.0136 305° West 508 585 27,400 -3,171 Descending Houston Center
Wed 09:02:08 AM 29.3367 -89.1456 305° West 504 580 24,200 -3,024 Descending Houston Center
Wed 09:03:10 AM 29.4103 -89.2689 304° West 476 548 21,200 -2,878 Descending Houston Center
Wed 09:04:11 AM 29.4797 -89.3847 305° West 449 517 18,300 -3,024 Descending Houston Center
Wed 09:05:13 AM 29.5639 -89.5256 305° West 446 513 15,000 -2,613 Descending Houston Center
Wed 09:06:15 AM 29.6383 -89.6183 313° West 421 484 12,900 -1,854 Descending Houston Center
Wed 09:07:16 AM 29.7072 -89.7056 312° West 388 447 11,200 -1,240 Descending Houston Center
Wed 09:08:16 AM 29.7586 -89.7981 303° West 328 377 10,400 -1,087 Descending Houston Center
Wed 09:09:23 AM 29.8014 -89.8894 298° West 264 304 8,900 -1,392 Descending Houston Center
Wed 09:10:21 AM 29.8286 -89.9536 296° West 272 313 7,500 -1,513 Descending Houston Center
Wed 09:11:22 AM 29.8647 -90.0250 300° West 268 308 5,900 -1,610 Descending Houston Center
Wed 09:12:24 AM 29.9250 -90.0742 325° Northwest 266 306 4,200 -968 Descending Houston Center
Wed 09:13:26 AM 29.9839 -90.1194 326° Northwest 260 299 3,900 -103 Descending Houston Center
Wed 09:14:21 AM 30.0636 -90.1133 North 269 310 4,000 -730 Climbing Houston Center
Wed 09:15:21 AM 30.1331 -90.1275 350° North 256 295 2,500 -992 Descending Houston Center
Wed 09:16:22 AM 30.1433 -90.1894 281° West 172 198 2,000 -246 Descending Houston Center
Wed 09:17:23 AM 30.1086 -90.2125 210° Southwest 133 153 2,000 -234 Level Houston Center
Wed 09:18:30 AM 30.0692 -90.2236 194° South 129 148 1,500 -609 Descending Houston Center
Wed 09:19:31 AM 30.0339 -90.2347 195° South 125 144 700 -567 Descending Houston Center
Wed 09:20:37 AM 30.0000 -90.2475 198° South 131 151 300 -364 Descending Houston Center

Login

Don't have an account? Register now (free) for customized features, flight alerts, and more!